Philadelphia, PA - PHL

The City of Brotherly Love

The Philadelphia International Airport is American Airlines' 5th largest hub and serves as another connection gateway to the Northeast, Europe, and some Caribbean destinations. AAG owns more than 70% of the passenger share here making it another key piece to the intricate route network.

PHL Based Pilots: 7   Miles to PHL: 134412
Flights from PHL: 142   Total Hours: 666.29
Routes using PHL: 1085   From PHL: 299.49
Total Miles: 239807   Hours To PHL: 366.8
Miles from PHL: 105395   PHL Charts: Click Here
VATSIM METAR: KPHL 272054Z 18009KT 10SM -RA FEW011 SCT090 OVC130 21/18 A2983 RMK AO2 TSE1958 SLP101 P0003 60044 T02060178 56011
 
         
View More: Click Here
   

 

Earn Your Wings

Interested in joining our PHL hub? Hover for more!

Your journey starts here. Your journey starts now. A whole new experience is at your fingertips.

Like what you see and ready to join the team?

A rewarding and memorable virtual airline experience awaits!